createdAt,value
2023-01-20T00:01:47.949Z,84.50
2023-01-20T00:04:18.947Z,84.54
2023-01-20T00:06:46.673Z,84.72
2023-01-20T00:09:16.044Z,84.81
2023-01-20T00:11:44.663Z,84.78
2023-01-20T00:14:13.885Z,84.69
2023-01-20T00:16:41.648Z,84.96
2023-01-20T00:19:09.389Z,85.24
2023-01-20T00:21:37.131Z,85.31
2023-01-20T00:24:05.269Z,85.52
2023-01-20T00:26:33.017Z,85.40
2023-01-20T00:29:00.721Z,85.56
2023-01-20T00:31:31.207Z,85.17
2023-01-20T00:34:01.124Z,85.29
2023-01-20T00:36:31.163Z,85.65
2023-01-20T00:38:58.973Z,85.68
2023-01-20T00:41:26.694Z,85.51
2023-01-20T00:43:54.461Z,85.02
2023-01-20T00:46:22.985Z,85.52
2023-01-20T00:48:52.204Z,85.75
2023-01-20T00:51:19.968Z,85.65
2023-01-20T00:53:47.740Z,85.60
2023-01-20T00:56:15.446Z,85.71
2023-01-20T00:58:44.065Z,85.23
2023-01-20T01:01:12.364Z,85.56
2023-01-20T01:03:40.161Z,85.65
2023-01-20T01:06:12.272Z,85.88
2023-01-20T01:08:40.031Z,85.88
2023-01-20T01:11:08.089Z,85.77
2023-01-20T01:13:37.247Z,85.49
2023-01-20T01:16:05.652Z,85.41
2023-01-20T01:18:33.362Z,85.40
2023-01-20T01:21:01.322Z,85.21
2023-01-20T01:23:30.427Z,85.30
2023-01-20T01:25:58.548Z,85.15
2023-01-20T01:28:26.247Z,84.76
2023-01-20T01:30:53.936Z,85.53
2023-01-20T01:33:21.671Z,85.53
2023-01-20T01:35:56.251Z,85.29
2023-01-20T01:38:24.269Z,85.41
2023-01-20T01:40:54.823Z,85.33
2023-01-20T01:43:25.423Z,85.37
2023-01-20T01:45:53.260Z,84.93
2023-01-20T01:48:22.477Z,85.35
2023-01-20T01:50:53.966Z,84.97
2023-01-20T01:53:22.329Z,85.13
2023-01-20T01:55:54.695Z,84.96
2023-01-20T01:58:26.774Z,85.36
2023-01-20T02:00:54.540Z,85.26
2023-01-20T02:03:22.433Z,84.80
2023-01-20T02:05:50.746Z,85.08
2023-01-20T02:08:18.486Z,85.17
2023-01-20T02:10:46.160Z,85.02
2023-01-20T02:13:15.341Z,85.01
2023-01-20T02:15:49.021Z,84.77
2023-01-20T02:18:35.539Z,84.57
2023-01-20T02:21:49.015Z,85.02
2023-01-20T02:25:01.821Z,84.61
2023-01-20T02:27:44.256Z,84.78
2023-01-20T02:30:40.243Z,84.88
2023-01-20T02:33:11.481Z,84.88
2023-01-20T02:35:43.898Z,84.89
2023-01-20T02:38:15.462Z,84.93
2023-01-20T02:40:51.026Z,84.75
2023-01-20T02:43:21.694Z,84.82
2023-01-20T02:45:51.156Z,84.83
2023-01-20T02:48:25.979Z,85.13
2023-01-20T02:50:59.877Z,84.77
2023-01-20T02:53:31.869Z,84.85
2023-01-20T02:55:59.649Z,85.41
2023-01-20T02:58:31.174Z,85.62
2023-01-20T03:01:02.178Z,85.59
2023-01-20T03:03:35.095Z,84.91
2023-01-20T03:06:05.339Z,85.16
2023-01-20T03:08:33.649Z,84.79
2023-01-20T03:11:05.083Z,84.64
2023-01-20T03:13:35.473Z,84.77
2023-01-20T03:16:06.411Z,84.95
2023-01-20T03:18:36.235Z,84.83
2023-01-20T03:21:05.445Z,84.63
2023-01-20T03:23:35.021Z,84.64
2023-01-20T03:26:04.662Z,84.56
2023-01-20T03:28:32.348Z,84.94
2023-01-20T03:31:00.603Z,84.77
2023-01-20T03:33:28.543Z,84.49
2023-01-20T03:35:57.730Z,84.32
2023-01-20T03:38:25.469Z,84.64
2023-01-20T03:41:00.195Z,84.53
2023-01-20T03:43:30.926Z,84.66
2023-01-20T03:46:03.963Z,85.05
2023-01-20T03:48:38.658Z,85.09
2023-01-20T03:51:11.947Z,84.91
2023-01-20T03:53:45.495Z,85.11
2023-01-20T03:56:17.119Z,85.06
2023-01-20T03:58:47.265Z,85.01
2023-01-20T04:01:18.510Z,85.16
2023-01-20T04:03:48.038Z,84.62
2023-01-20T04:06:19.593Z,84.73
2023-01-20T04:08:49.921Z,84.56
2023-01-20T04:11:17.843Z,84.88
2023-01-20T04:13:45.564Z,84.75
2023-01-20T04:16:17.202Z,84.96
2023-01-20T04:18:47.321Z,84.42
2023-01-20T04:21:20.345Z,84.42
2023-01-20T04:23:52.885Z,84.72
2023-01-20T04:26:20.657Z,84.56
2023-01-20T04:28:48.368Z,84.52
2023-01-20T04:31:29.561Z,84.35
2023-01-20T04:33:58.543Z,84.17
2023-01-20T04:36:27.791Z,84.78
2023-01-20T04:38:55.456Z,84.22
2023-01-20T04:41:23.378Z,84.35
2023-01-20T04:43:51.173Z,84.75
2023-01-20T04:46:18.962Z,85.00
2023-01-20T04:48:47.079Z,84.98
2023-01-20T04:51:15.157Z,84.95
2023-01-20T04:53:44.250Z,85.05
2023-01-20T04:56:12.992Z,85.46
2023-01-20T04:58:40.834Z,85.46
2023-01-20T05:01:08.868Z,85.43
2023-01-20T05:03:36.743Z,85.50
2023-01-20T05:06:06.225Z,85.57
2023-01-20T05:08:34.106Z,85.32
2023-01-20T05:11:03.250Z,85.33
2023-01-20T05:13:31.156Z,85.66
2023-01-20T05:16:01.897Z,85.46
2023-01-20T05:18:30.560Z,85.35
2023-01-20T05:20:58.244Z,85.03
2023-01-20T05:23:25.918Z,85.19
2023-01-20T05:25:54.337Z,85.12
2023-01-20T05:28:23.596Z,85.12
2023-01-20T05:30:51.763Z,85.37
2023-01-20T05:33:19.888Z,85.65
2023-01-20T05:35:47.555Z,85.28
2023-01-20T05:38:15.325Z,85.11
2023-01-20T05:40:43.019Z,85.12
2023-01-20T05:43:12.872Z,85.67
2023-01-20T05:45:43.112Z,85.49
2023-01-20T05:48:10.827Z,85.38
2023-01-20T05:50:38.572Z,85.34
2023-01-20T05:53:06.336Z,85.42
2023-01-20T05:55:34.054Z,85.65
2023-01-20T05:58:02.501Z,85.33
2023-01-20T06:00:30.548Z,85.50
2023-01-20T06:02:59.690Z,85.09
2023-01-20T06:05:27.569Z,84.92
2023-01-20T06:07:56.088Z,85.09
2023-01-20T06:10:25.269Z,84.89
2023-01-20T06:12:53.826Z,84.88
2023-01-20T06:15:21.658Z,84.99
2023-01-20T06:17:49.355Z,84.83
2023-01-20T06:20:18.826Z,85.20
2023-01-20T06:22:46.609Z,85.46
2023-01-20T06:25:14.780Z,85.33
2023-01-20T06:27:42.553Z,84.99
2023-01-20T06:30:12.159Z,85.09
2023-01-20T06:32:39.854Z,84.39
2023-01-20T06:35:09.928Z,84.78
2023-01-20T06:37:40.390Z,84.69
2023-01-20T06:40:09.234Z,85.28
2023-01-20T06:42:36.906Z,85.30
2023-01-20T06:45:05.097Z,85.69
2023-01-20T06:47:32.717Z,85.09
2023-01-20T06:50:00.457Z,85.05
2023-01-20T06:52:28.281Z,85.51
2023-01-20T06:54:57.358Z,85.29
2023-01-20T06:57:25.052Z,85.21
2023-01-20T06:59:52.673Z,85.64
2023-01-20T07:02:20.423Z,85.63
2023-01-20T07:04:48.170Z,85.25
2023-01-20T07:07:15.905Z,85.26
2023-01-20T07:09:43.550Z,85.11
2023-01-20T07:12:12.674Z,85.58
2023-01-20T07:14:40.469Z,85.47
2023-01-20T07:17:13.504Z,85.27
2023-01-20T07:19:41.275Z,85.14
2023-01-20T07:22:08.956Z,85.01
2023-01-20T07:24:36.793Z,85.12
2023-01-20T07:27:04.595Z,85.17
2023-01-20T07:29:33.753Z,85.21
2023-01-20T07:32:01.553Z,84.99
2023-01-20T07:34:29.329Z,84.75
2023-01-20T07:36:57.039Z,84.88
2023-01-20T07:39:24.827Z,85.28
2023-01-20T07:41:52.590Z,85.15
2023-01-20T07:44:20.293Z,85.49
2023-01-20T07:46:51.617Z,85.20
2023-01-20T07:49:19.398Z,85.40
2023-01-20T07:51:47.096Z,85.40
2023-01-20T07:54:14.798Z,84.77
2023-01-20T07:56:42.509Z,84.52
2023-01-20T07:59:11.508Z,85.08
2023-01-20T08:01:39.253Z,85.05
2023-01-20T08:04:08.392Z,84.68
2023-01-20T08:06:36.084Z,84.85
2023-01-20T08:09:04.004Z,85.41
2023-01-20T08:13:38.063Z,85.74
2023-01-20T08:16:08.346Z,85.52
2023-01-20T08:18:36.769Z,85.87
2023-01-20T08:21:06.592Z,86.27
2023-01-20T08:23:34.458Z,85.64
2023-01-20T08:26:03.529Z,85.36
2023-01-20T08:28:31.509Z,85.47
2023-01-20T08:31:07.884Z,85.34
2023-01-20T08:33:36.107Z,85.26
2023-01-20T08:36:08.773Z,85.57
2023-01-20T08:38:36.838Z,85.29
2023-01-20T08:41:08.229Z,85.54
2023-01-20T08:43:35.977Z,84.90
2023-01-20T08:46:07.704Z,85.62
2023-01-20T08:48:35.660Z,85.94
2023-01-20T08:51:05.041Z,85.49
2023-01-20T08:53:32.893Z,85.50
2023-01-20T08:56:01.822Z,85.47
2023-01-20T08:58:30.252Z,85.23
2023-01-20T09:00:58.091Z,85.22
2023-01-20T09:03:27.225Z,84.92
2023-01-20T09:05:54.884Z,85.33
2023-01-20T09:08:23.384Z,84.92
2023-01-20T09:10:51.384Z,85.12
2023-01-20T09:13:19.084Z,84.78
2023-01-20T09:15:52.567Z,85.12
2023-01-20T09:18:20.328Z,85.05
2023-01-20T09:20:49.347Z,85.18
2023-01-20T09:23:17.023Z,84.93
2023-01-20T09:25:44.710Z,84.73
2023-01-20T09:28:14.206Z,84.88
2023-01-20T09:30:43.956Z,85.08
2023-01-20T09:33:12.120Z,84.91
2023-01-20T09:35:40.632Z,84.92
2023-01-20T09:38:28.340Z,84.74
2023-01-20T09:41:21.431Z,84.86
2023-01-20T09:43:55.424Z,85.34
2023-01-20T09:46:31.550Z,84.48
2023-01-20T09:49:23.427Z,84.89
2023-01-20T09:52:13.231Z,84.74
2023-01-20T09:54:46.102Z,84.96
2023-01-20T09:57:15.036Z,85.24
2023-01-20T09:59:47.188Z,85.00
2023-01-20T10:02:19.705Z,84.63
2023-01-20T10:04:49.403Z,85.11
2023-01-20T10:07:24.104Z,84.93
2023-01-20T10:09:56.476Z,85.13
2023-01-20T10:12:28.849Z,84.77
2023-01-20T10:15:01.290Z,84.66
2023-01-20T10:17:31.960Z,84.67
2023-01-20T10:20:04.009Z,84.43
2023-01-20T10:22:35.511Z,84.27
2023-01-20T10:25:08.274Z,84.34
2023-01-20T10:27:38.097Z,84.26
2023-01-20T10:30:09.121Z,84.42
2023-01-20T10:32:39.067Z,83.92
2023-01-20T10:35:15.570Z,84.19
2023-01-20T10:37:43.876Z,84.30
2023-01-20T10:40:20.997Z,83.97
2023-01-20T10:42:49.880Z,84.04
2023-01-20T10:45:22.730Z,83.98
2023-01-20T10:47:58.241Z,84.12
2023-01-20T10:50:52.281Z,83.97
2023-01-20T10:53:41.742Z,83.91
2023-01-20T10:56:36.153Z,84.57
2023-01-20T10:59:09.481Z,84.16
2023-01-20T11:01:37.744Z,84.10
2023-01-20T11:04:05.482Z,84.04
2023-01-20T11:06:33.858Z,83.97
2023-01-20T11:09:30.595Z,84.11
2023-01-20T11:12:00.927Z,83.83
2023-01-20T11:14:28.630Z,83.39
2023-01-20T11:17:01.156Z,83.90
2023-01-20T11:19:28.870Z,83.68
2023-01-20T11:21:56.593Z,83.41
2023-01-20T11:24:36.527Z,83.61
2023-01-20T11:27:07.045Z,83.59
2023-01-20T11:29:40.747Z,83.89
2023-01-20T11:32:25.431Z,83.95
2023-01-20T11:34:53.391Z,84.08
2023-01-20T11:37:22.563Z,83.84
2023-01-20T11:40:02.156Z,84.11
2023-01-20T11:42:32.277Z,83.71
2023-01-20T11:45:19.815Z,83.84
2023-01-20T11:48:01.446Z,84.03
2023-01-20T11:50:32.999Z,83.61
2023-01-20T11:53:19.364Z,84.16
2023-01-20T11:55:51.008Z,84.05
2023-01-20T11:58:21.778Z,83.49
2023-01-20T12:00:51.368Z,83.49
2023-01-20T12:03:46.835Z,83.67
2023-01-20T12:06:19.368Z,84.02
2023-01-20T12:08:50.701Z,83.22
2023-01-20T12:11:23.513Z,83.12
2023-01-20T12:14:23.634Z,83.76
2023-01-20T12:16:59.038Z,83.30
2023-01-20T12:19:31.982Z,82.81
2023-01-20T12:22:04.545Z,82.91
2023-01-20T12:24:54.797Z,83.14
2023-01-20T12:27:26.591Z,83.11
2023-01-20T12:29:57.355Z,83.04
2023-01-20T12:32:25.068Z,83.13
2023-01-20T12:34:52.822Z,82.75
2023-01-20T12:37:24.818Z,83.14
2023-01-20T12:40:07.359Z,82.74
2023-01-20T12:43:11.815Z,82.53
2023-01-20T12:45:51.132Z,82.89
2023-01-20T12:48:28.454Z,82.71
2023-01-20T12:51:10.635Z,82.77
2023-01-20T12:53:56.100Z,82.79
2023-01-20T12:56:31.403Z,82.99
2023-01-20T12:59:04.308Z,82.45
2023-01-20T13:01:47.215Z,82.55
2023-01-20T13:04:57.727Z,82.53
2023-01-20T13:07:49.547Z,82.58
2023-01-20T13:10:30.517Z,82.43
2023-01-20T13:13:03.229Z,82.17
2023-01-20T13:15:36.414Z,82.48
2023-01-20T13:18:19.064Z,81.96
2023-01-20T13:20:47.415Z,82.47
2023-01-20T13:23:17.163Z,82.50
2023-01-20T13:25:46.374Z,82.29
2023-01-20T13:28:17.567Z,82.58
2023-01-20T13:30:48.233Z,82.31
2023-01-20T13:33:32.719Z,82.21
2023-01-20T13:36:01.107Z,82.21
2023-01-20T13:38:31.032Z,82.26
2023-01-20T13:41:03.185Z,81.96
2023-01-20T13:43:48.212Z,82.33
2023-01-20T13:46:38.358Z,82.21
2023-01-20T13:49:15.745Z,81.95
2023-01-20T13:51:45.933Z,82.22
2023-01-20T13:54:47.250Z,81.92
2023-01-20T13:57:34.710Z,82.17
2023-01-20T14:00:02.505Z,82.06
2023-01-20T14:02:37.465Z,81.86
2023-01-20T14:05:20.775Z,82.13
2023-01-20T14:07:48.519Z,82.00
2023-01-20T14:10:16.351Z,81.76
2023-01-20T14:12:44.248Z,82.26
2023-01-20T14:15:34.200Z,81.64
2023-01-20T14:18:02.190Z,81.89
2023-01-20T14:20:31.509Z,81.61
2023-01-20T14:23:18.347Z,81.63
2023-01-20T14:25:57.945Z,81.69
2023-01-20T14:28:25.673Z,81.54
2023-01-20T14:31:21.301Z,81.45
2023-01-20T14:34:00.519Z,81.60
2023-01-20T14:36:31.836Z,81.40
2023-01-20T14:39:03.874Z,80.75
2023-01-20T14:41:34.630Z,80.92
2023-01-20T14:44:03.208Z,80.89
2023-01-20T14:46:40.693Z,80.88
2023-01-20T14:49:08.514Z,81.21
2023-01-20T14:51:37.663Z,81.11
2023-01-20T14:54:30.992Z,80.69
2023-01-20T14:56:59.940Z,80.33
2023-01-20T14:59:27.870Z,80.14
2023-01-20T15:02:06.804Z,79.12
2023-01-20T15:04:37.994Z,79.20
2023-01-20T15:07:07.511Z,78.46
2023-01-20T15:09:36.272Z,78.58
2023-01-20T15:12:42.580Z,78.84
2023-01-20T15:15:28.201Z,78.62
2023-01-20T15:18:18.911Z,79.16
2023-01-20T15:20:48.886Z,79.06
2023-01-20T15:23:35.505Z,78.15
2023-01-20T15:26:09.664Z,78.01
2023-01-20T15:28:42.311Z,78.28
2023-01-20T15:31:13.725Z,78.92
2023-01-20T15:33:41.839Z,78.44
2023-01-20T15:36:21.598Z,78.30
2023-01-20T15:38:51.369Z,78.47
2023-01-20T15:41:19.725Z,78.78
2023-01-20T15:43:49.151Z,78.69
2023-01-20T15:46:18.070Z,78.25
2023-01-20T15:48:46.702Z,78.13
2023-01-20T15:51:15.709Z,77.78
2023-01-20T15:53:43.497Z,77.82
2023-01-20T15:56:15.772Z,77.34
2023-01-20T15:58:43.507Z,77.47
2023-01-20T16:01:12.693Z,78.03
2023-01-20T16:03:40.444Z,77.63
2023-01-20T16:06:12.202Z,77.41
2023-01-20T16:08:40.164Z,77.98
2023-01-20T16:11:09.006Z,77.13
2023-01-20T16:13:38.153Z,77.66
2023-01-20T16:16:07.364Z,77.23
2023-01-20T16:18:35.078Z,77.59
2023-01-20T16:21:02.763Z,77.18
2023-01-20T16:23:30.594Z,77.15
2023-01-20T16:25:58.349Z,77.40
2023-01-20T16:28:26.039Z,77.45
2023-01-20T16:30:57.663Z,76.74
2023-01-20T16:33:26.660Z,76.68
2023-01-20T16:35:56.522Z,76.72
2023-01-20T16:38:26.873Z,76.75
2023-01-20T16:40:59.086Z,76.12
2023-01-20T16:43:26.832Z,75.67
2023-01-20T16:45:56.158Z,76.22
2023-01-20T16:48:25.586Z,76.10
2023-01-20T16:51:34.896Z,75.78
2023-01-20T16:54:02.602Z,76.15
2023-01-20T16:56:31.240Z,76.40
2023-01-20T16:59:00.626Z,75.72
2023-01-20T17:01:29.187Z,75.16
2023-01-20T17:03:58.582Z,75.70
2023-01-20T17:06:27.984Z,75.52
2023-01-20T17:08:58.585Z,75.55
2023-01-20T17:11:28.287Z,75.29
2023-01-20T17:13:56.634Z,75.14
2023-01-20T17:18:51.250Z,75.46
2023-01-20T17:21:20.674Z,76.07
2023-01-20T17:23:51.029Z,76.28
2023-01-20T17:26:19.044Z,76.59
2023-01-20T17:28:47.082Z,76.79
2023-01-20T17:31:14.970Z,76.90
2023-01-20T17:33:46.647Z,76.46
2023-01-20T17:36:16.670Z,76.80
2023-01-20T17:38:44.828Z,76.97
2023-01-20T17:41:16.021Z,76.72
2023-01-20T17:43:46.102Z,77.11
2023-01-20T17:46:16.057Z,77.25
2023-01-20T17:48:43.940Z,76.95
2023-01-20T17:51:12.577Z,76.53
2023-01-20T17:53:42.100Z,77.12
2023-01-20T17:56:12.695Z,76.67
2023-01-20T17:58:42.090Z,76.29
2023-01-20T18:01:11.552Z,76.14
2023-01-20T18:03:41.885Z,76.03
2023-01-20T18:06:19.029Z,75.96
2023-01-20T18:08:52.038Z,76.00
2023-01-20T18:11:21.713Z,76.22
2023-01-20T18:13:50.231Z,75.96
2023-01-20T18:16:20.291Z,76.22
2023-01-20T18:18:49.473Z,76.39
2023-01-20T18:21:19.175Z,76.18
2023-01-20T18:23:49.424Z,75.90
2023-01-20T18:26:18.828Z,75.53
2023-01-20T18:28:47.895Z,75.81
2023-01-20T18:31:17.589Z,75.55
2023-01-20T18:33:47.634Z,75.78
2023-01-20T18:36:17.785Z,75.82
2023-01-20T18:38:52.000Z,75.41
2023-01-20T18:41:20.006Z,75.56
2023-01-20T18:43:48.257Z,75.21
2023-01-20T18:46:16.198Z,75.56
2023-01-20T18:48:45.865Z,75.08
2023-01-20T18:51:15.756Z,74.87
2023-01-20T18:53:44.309Z,74.67
2023-01-20T18:56:15.303Z,74.54
2023-01-20T18:58:47.042Z,74.41
2023-01-20T19:01:18.236Z,74.77
2023-01-20T19:03:46.808Z,74.28
2023-01-20T19:06:16.627Z,74.39
2023-01-20T19:08:45.532Z,74.32
2023-01-20T19:11:15.917Z,74.23
2023-01-20T19:13:43.711Z,74.30
2023-01-20T19:16:13.315Z,74.06
2023-01-20T19:18:41.666Z,73.83
2023-01-20T19:21:11.453Z,74.37
2023-01-20T19:23:39.710Z,74.33
2023-01-20T19:26:09.089Z,74.45
2023-01-20T19:28:38.542Z,73.63
2023-01-20T19:31:07.606Z,73.86
2023-01-20T19:33:35.721Z,73.77
2023-01-20T19:36:04.883Z,74.60
2023-01-20T19:38:32.675Z,74.39
2023-01-20T19:41:05.589Z,74.28
2023-01-20T19:43:33.379Z,74.21
2023-01-20T19:46:03.774Z,74.00
2023-01-20T19:48:32.033Z,74.12
2023-01-20T19:51:03.718Z,73.74
2023-01-20T19:53:31.538Z,73.70
2023-01-20T19:56:02.835Z,73.77
2023-01-20T19:58:30.580Z,73.96
2023-01-20T20:01:07.885Z,73.99
2023-01-20T20:03:35.791Z,73.75
2023-01-20T20:06:05.019Z,73.72
2023-01-20T20:08:32.949Z,73.63
2023-01-20T20:11:00.651Z,73.94
2023-01-20T20:13:28.353Z,73.59
2023-01-20T20:16:01.827Z,73.57
2023-01-20T20:18:31.074Z,73.46
2023-01-20T20:20:59.017Z,73.57
2023-01-20T20:23:27.020Z,73.67
2023-01-20T20:25:56.573Z,73.55
2023-01-20T20:28:24.756Z,73.66
2023-01-20T20:30:55.389Z,73.43
2023-01-20T20:33:23.228Z,73.88
2023-01-20T20:35:52.601Z,73.73
2023-01-20T20:38:20.367Z,73.57
2023-01-20T20:40:48.113Z,73.72
2023-01-20T20:43:15.883Z,74.07
2023-01-20T20:45:43.684Z,73.65
2023-01-20T20:48:11.379Z,73.90
2023-01-20T20:50:39.102Z,73.81
2023-01-20T20:53:08.211Z,73.81
2023-01-20T20:55:40.243Z,73.74
2023-01-20T20:58:09.275Z,73.74
2023-01-20T21:00:37.006Z,74.07
2023-01-20T21:03:06.876Z,74.54
2023-01-20T21:05:34.847Z,74.31
2023-01-20T21:08:04.699Z,74.33
2023-01-20T21:10:34.036Z,74.23
2023-01-20T21:13:01.809Z,74.33
2023-01-20T21:15:30.461Z,74.30
2023-01-20T21:17:58.414Z,74.87
2023-01-20T21:20:26.229Z,74.51
2023-01-20T21:22:54.006Z,74.62
2023-01-20T21:25:24.041Z,74.80
2023-01-20T21:27:53.277Z,74.92
2023-01-20T21:30:23.196Z,74.89
2023-01-20T21:32:51.176Z,75.13
2023-01-20T21:35:18.933Z,75.10
2023-01-20T21:37:46.700Z,75.32
2023-01-20T21:40:14.907Z,75.41
2023-01-20T21:42:44.047Z,75.32
2023-01-20T21:45:12.530Z,75.72
2023-01-20T21:47:40.297Z,75.39
2023-01-20T21:50:26.884Z,75.57
2023-01-20T21:52:54.617Z,75.51
2023-01-20T21:55:24.163Z,75.72
2023-01-20T21:57:51.916Z,75.29
2023-01-20T22:00:22.097Z,75.49
2023-01-20T22:02:49.828Z,75.86
2023-01-20T22:05:18.278Z,75.71
2023-01-20T22:07:47.917Z,75.89
2023-01-20T22:10:16.141Z,76.11
2023-01-20T22:12:44.016Z,75.88
2023-01-20T22:15:12.624Z,76.02
2023-01-20T22:17:41.870Z,76.16
2023-01-20T22:20:11.228Z,76.03
2023-01-20T22:22:38.927Z,75.93
2023-01-20T22:25:07.534Z,76.09
2023-01-20T22:27:35.363Z,76.43
2023-01-20T22:30:03.070Z,76.25
2023-01-20T22:32:30.792Z,76.25
2023-01-20T22:35:00.024Z,76.16
2023-01-20T22:37:27.867Z,76.47
2023-01-20T22:39:55.723Z,76.32
2023-01-20T22:42:23.497Z,76.31
2023-01-20T22:44:51.291Z,76.04
2023-01-20T22:47:19.035Z,75.87
2023-01-20T22:49:46.795Z,76.27
2023-01-20T22:52:15.869Z,76.11
2023-01-20T22:54:43.556Z,76.17
2023-01-20T22:57:11.791Z,76.30
2023-01-20T22:59:39.508Z,76.28
2023-01-20T23:02:07.398Z,76.19
2023-01-20T23:04:35.201Z,76.09
2023-01-20T23:07:02.907Z,76.27
2023-01-20T23:09:32.082Z,76.53
2023-01-20T23:11:59.807Z,76.36
2023-01-20T23:14:58.521Z,76.37
2023-01-20T23:17:26.267Z,76.36
2023-01-20T23:19:54.297Z,76.34
2023-01-20T23:22:22.293Z,76.47
2023-01-20T23:24:51.693Z,76.27
2023-01-20T23:27:19.432Z,76.22
2023-01-20T23:29:49.105Z,76.03
2023-01-20T23:32:16.852Z,76.24
2023-01-20T23:34:44.578Z,76.08
2023-01-20T23:37:12.314Z,76.46
2023-01-20T23:39:40.085Z,76.35
2023-01-20T23:42:09.150Z,76.65
2023-01-20T23:44:36.805Z,76.58
2023-01-20T23:47:07.520Z,76.29
2023-01-20T23:49:35.175Z,76.27
2023-01-20T23:52:02.860Z,76.63
2023-01-20T23:54:30.619Z,76.49
2023-01-20T23:56:58.399Z,76.67
2023-01-20T23:59:27.559Z,76.70
